الصفحة الرئيسية
METAR-TAF:

METAR-TAF

مطار :

مطار أتاتورك الدولي

إسطنبول مطار أتاتورك الدولي, تركيا

دائرة عرض: 40-58N, خط طول: 028-49E, ارتفاع: 48 متر

مراقبة الطقس الحالي

تاريخ ووقت الإصدار 53 دقيقة قبل الساعة 22:20UTC
ريح 26 عقدة من الشمال تتزايد حتى 41 عقدة
درجة الحرارة 22°درجة مئوية
الرطوبة 69%
ضغط 1015 hPa
الرؤية 10 كم أو أكثر
غيوم قليلة على ارتفاع 3000 قدم

METAR: LTBA 242220Z 36026G41KT 9999 FEW030 22/16 Q1015 NOSIG

زمن: 02:13 (23:13 UTC)

توقعات

تاريخ ووقت الإصدار 6ساعات و 33 دقيقة قبل الساعة 16:40UTC
التوقعات صالحة من24 الساعة 18 UTC إلى 25 الساعة 24 UTC
ريح 8 عقدة من الغرب/الجنوب الغربي
الرؤية 10 كم أو أكثر
الغيوم لا تقل 1500 م ولا وجود لمزنة ركامية السحاب الأسود
أصبح
من 24 الساعة 22 UTC إلى 25 الساعة 01 UTC
ريح 20 عقدة من الشمال/الشمال الشرقي تتزايد حتى 30 عقدة
غيوم مفككة على ارتفاع 2800 قدم
زخات من الأمطار الخفيفة
مؤقت
من 25 الساعة 00 UTC إلى 25 الساعة 03 UTC
ريح 25 عقدة من الشمال تتزايد حتى 40 عقدة

TAF: LTBA 241640Z 2418/2524 24008KT CAVOK BECMG 2422/2501 02020G30KT -SHRA BKN028 TEMPO 2500/2503 01025G40KT

أرصاد الطقس والتوقعات من أكثر من 4000 مطار (تقارير الطقس للمطار METAR والتنبؤ بالطقس بالمطارTAF).

المحطات المتاحة هي النقط الصفراء والحمراء على الخريطة.

حرك المؤشر فوق النقطة لمعرفة اسم المحطة.

ثم انقر لمعرفة أرصاد وتوقعات الطقس.

لتغيير الخارطة: اضغط على الأزرار الخضراء مع رمز الصليب الأسود للتكبير. على الزر الأخضر مع شرطة للتصغير، أو على الأسهم الخضراء للخرائط المجاورة.


METAR-TAF: